<?xml version="1.0" encoding="UTF-8" standalone="no" ?>
<gpx xmlns="http://www.topografix.com/GPX/1/1" xmlns:xsi="http://www.w3.org/2001/XMLSchema-instance" xsi:schemaLocation="http://www.topografix.com/GPX/1/1 http://www.topografix.com/GPX/1/1/gpx.xsd" version="1.1" creator="VisuGPX - https://www.visugpx.com">
  <metadata>
    <name>8076304-Etampes repérée Mars 19</name>
  </metadata>
  <trk>
    <name><![CDATA[8076304-Etampes repérée Mars 19]]></name>
    <trkseg>
      <trkpt lat="48.42683" lon="2.13919">
        <ele>82</ele>
        <time>2020-09-14T19:03:43Z</time>
      </trkpt>
      <trkpt lat="48.42906" lon="2.13842">
        <ele>90</ele>
        <time>2020-09-14T19:08:48Z</time>
      </trkpt>
      <trkpt lat="48.43091" lon="2.13057">
        <ele>125</ele>
        <time>2020-09-14T19:21:06Z</time>
      </trkpt>
      <trkpt lat="48.4298" lon="2.12718">
        <ele>128</ele>
        <time>2020-09-14T19:26:41Z</time>
      </trkpt>
      <trkpt lat="48.42945" lon="2.12035">
        <ele>127</ele>
        <time>2020-09-14T19:36:47Z</time>
      </trkpt>
      <trkpt lat="48.43125" lon="2.11829">
        <ele>124</ele>
        <time>2020-09-14T19:41:49Z</time>
      </trkpt>
      <trkpt lat="48.43344" lon="2.11838">
        <ele>139</ele>
        <time>2020-09-14T19:46:41Z</time>
      </trkpt>
      <trkpt lat="48.4343" lon="2.1204">
        <ele>140</ele>
        <time>2020-09-14T19:50:14Z</time>
      </trkpt>
      <trkpt lat="48.43689" lon="2.1146">
        <ele>138</ele>
        <time>2020-09-14T20:00:33Z</time>
      </trkpt>
      <trkpt lat="48.42957" lon="2.10327">
        <ele>92</ele>
        <time>2020-09-14T20:23:53Z</time>
      </trkpt>
      <trkpt lat="48.43415" lon="2.09027">
        <ele>141</ele>
        <time>2020-09-14T20:45:36Z</time>
      </trkpt>
      <trkpt lat="48.43472" lon="2.08353">
        <ele>142</ele>
        <time>2020-09-14T20:55:38Z</time>
      </trkpt>
      <trkpt lat="48.43327" lon="2.08211">
        <ele>138</ele>
        <time>2020-09-14T20:59:28Z</time>
      </trkpt>
      <trkpt lat="48.43293" lon="2.07765">
        <ele>89</ele>
        <time>2020-09-14T21:06:06Z</time>
      </trkpt>
      <trkpt lat="48.43381" lon="2.07696">
        <ele>88</ele>
        <time>2020-09-14T21:08:18Z</time>
      </trkpt>
      <trkpt lat="48.43039" lon="2.07259">
        <ele>102</ele>
        <time>2020-09-14T21:18:17Z</time>
      </trkpt>
      <trkpt lat="48.42957" lon="2.05765">
        <ele>137</ele>
        <time>2020-09-14T21:40:24Z</time>
      </trkpt>
      <trkpt lat="48.42456" lon="2.05894">
        <ele>138</ele>
        <time>2020-09-14T21:51:42Z</time>
      </trkpt>
      <trkpt lat="48.42128" lon="2.05817">
        <ele>123</ele>
        <time>2020-09-14T21:59:05Z</time>
      </trkpt>
      <trkpt lat="48.42319" lon="2.0525">
        <ele>140</ele>
        <time>2020-09-14T22:08:28Z</time>
      </trkpt>
      <trkpt lat="48.42157" lon="2.05263">
        <ele>140</ele>
        <time>2020-09-14T22:12:05Z</time>
      </trkpt>
      <trkpt lat="48.41755" lon="2.04825">
        <ele>133</ele>
        <time>2020-09-14T22:23:07Z</time>
      </trkpt>
      <trkpt lat="48.41863" lon="2.0522">
        <ele>106</ele>
        <time>2020-09-14T22:29:25Z</time>
      </trkpt>
      <trkpt lat="48.41764" lon="2.05139">
        <ele>96</ele>
        <time>2020-09-14T22:31:56Z</time>
      </trkpt>
      <trkpt lat="48.41433" lon="2.05409">
        <ele>100</ele>
        <time>2020-09-14T22:40:18Z</time>
      </trkpt>
      <trkpt lat="48.41325" lon="2.06546">
        <ele>142</ele>
        <time>2020-09-14T22:57:15Z</time>
      </trkpt>
      <trkpt lat="48.42046" lon="2.07018">
        <ele>136</ele>
        <time>2020-09-14T23:14:44Z</time>
      </trkpt>
      <trkpt lat="48.4194" lon="2.07349">
        <ele>141</ele>
        <time>2020-09-14T23:20:10Z</time>
      </trkpt>
      <trkpt lat="48.42644" lon="2.07761">
        <ele>121</ele>
        <time>2020-09-14T23:36:58Z</time>
      </trkpt>
      <trkpt lat="48.42686" lon="2.07443">
        <ele>111</ele>
        <time>2020-09-14T23:41:45Z</time>
      </trkpt>
      <trkpt lat="48.42621" lon="2.07181">
        <ele>98</ele>
        <time>2020-09-14T23:45:52Z</time>
      </trkpt>
      <trkpt lat="48.42692" lon="2.07263">
        <ele>94</ele>
        <time>2020-09-14T23:47:52Z</time>
      </trkpt>
      <trkpt lat="48.42598" lon="2.07036">
        <ele>88</ele>
        <time>2020-09-14T23:51:49Z</time>
      </trkpt>
      <trkpt lat="48.42638" lon="2.068">
        <ele>90</ele>
        <time>2020-09-14T23:55:24Z</time>
      </trkpt>
      <trkpt lat="48.4292" lon="2.06529">
        <ele>137</ele>
        <time>2020-09-15T00:02:51Z</time>
      </trkpt>
      <trkpt lat="48.43002" lon="2.07229">
        <ele>99</ele>
        <time>2020-09-15T00:13:20Z</time>
      </trkpt>
      <trkpt lat="48.43299" lon="2.07572">
        <ele>83</ele>
        <time>2020-09-15T00:21:40Z</time>
      </trkpt>
      <trkpt lat="48.43079" lon="2.08044">
        <ele>88</ele>
        <time>2020-09-15T00:30:10Z</time>
      </trkpt>
      <trkpt lat="48.43094" lon="2.08744">
        <ele>84</ele>
        <time>2020-09-15T00:40:30Z</time>
      </trkpt>
      <trkpt lat="48.42863" lon="2.09628">
        <ele>92</ele>
        <time>2020-09-15T00:54:32Z</time>
      </trkpt>
      <trkpt lat="48.42886" lon="2.11542">
        <ele>94</ele>
        <time>2020-09-15T01:22:47Z</time>
      </trkpt>
      <trkpt lat="48.42797" lon="2.11761">
        <ele>84</ele>
        <time>2020-09-15T01:26:34Z</time>
      </trkpt>
      <trkpt lat="48.42755" lon="2.11632">
        <ele>83</ele>
        <time>2020-09-15T01:28:41Z</time>
      </trkpt>
      <trkpt lat="48.42561" lon="2.11559">
        <ele>85</ele>
        <time>2020-09-15T01:33:08Z</time>
      </trkpt>
      <trkpt lat="48.42453" lon="2.12293">
        <ele>83</ele>
        <time>2020-09-15T01:44:14Z</time>
      </trkpt>
      <trkpt lat="48.42558" lon="2.12808">
        <ele>81</ele>
        <time>2020-09-15T01:52:11Z</time>
      </trkpt>
      <trkpt lat="48.42666" lon="2.12765">
        <ele>81</ele>
        <time>2020-09-15T01:54:40Z</time>
      </trkpt>
      <trkpt lat="48.42871" lon="2.13825">
        <ele>88</ele>
        <time>2020-09-15T02:10:58Z</time>
      </trkpt>
      <trkpt lat="48.42746" lon="2.13902">
        <ele>82</ele>
        <time>2020-09-15T02:13:58Z</time>
      </trkpt>
    </trkseg>
  </trk>
</gpx>